Racecast

Lizzie Valentine

Centauri (CO) · 12 · CO D3A2A · Compare head to head

Athlete rating 116.0 2020 XC season
Best race 119.3 XC
Races 34
Seasons 4 2017 — 2020

RankedNation #20450·CO #661·CO D3A #157·Team #3 ?

Speed rating — all races

Cross Country

XC speed rating

2020 XC 112.0

Centauri (CO) · Grade 12

Date Meet Event Result Place Rating Difficulty PR/SR Flags
2020-10-09 Babcock Park 5000m 21:58.6 9th · 2nd on team 116.4 +0.009 SR CSR RSR
2020-09-25 Pagosa Springs High 5000m 26:22 12th · 3rd on team 106.3 +0.117 CSR
2020-09-18 Hillcrest Golf Club 5000m 23:44 15th · 2nd on team 109.8 +0.040 ★CR CSR
2020-08-28 Parque de Vida 5000m 23:06 8th · 2nd on team 115.7 +0.071 ★CR SR CSR RSR

2019 XC 113.7

Centauri (CO) · Grade 11

Date Meet Event Result Place Rating Difficulty PR/SR Flags
2019-10-26 Norris Penrose Event Center 5000m 22:25.2 29th · 1st on team 118.9 +0.067 CSR RSR
2019-10-18 Babcock Park 5000m 21:26.7 6th · 1st on team 117.2 +0.009 SR CSR RSR
2019-09-28 Salida High School 5000m 24:01.2 52nd · 1st on team 112.2 +0.092 ★CR CSR
2019-09-07 Cattails Golf Course 5000m 22:37 86th · 1st on team 111.0 +0.012 SR CSR
2019-08-31 Colorado Mountain College 5000m 25:45 24th · 1st on team 110.3 +0.148 ★CR CSR
2019-08-23 Norris Penrose Event Center 5000m 23:34.3 6th · 1st on team 112.4 +0.067 SR CSR RSR

2018 XC 113.4

Centauri (CO) · Grade 10

Date Meet Event Result Place Rating Difficulty PR/SR Flags
2018-10-27 Norris Penrose Event Center 5000m 22:12 24th · 1st on team 119.3 +0.067 ★CR ★R CSR RSR
2018-10-19 Babcock Park 5000m 20:57.9 7th · 1st on team 118.8 +0.009 ★CR R SR CSR RSR
2018-10-12 Monte Vista Golf Course 5000m 22:56.2 15th · 1st on team 113.1 +0.046 ★CR SR CSR
2018-09-22 Pagosa Springs High 5000m 25:32 13th · 1st on team 108.2 +0.117 CSR
2018-09-08 Cattails Golf Course 5000m 23:13.5 65th · 1st on team 107.8 +0.012 SR CSR
2018-08-24 Norris Penrose Event Center 5000m 23:31.4 6th · 2nd on team 113.3 +0.067 CR SR CSR RSR

2017 XC 114.5

Centauri (CO) · Grade 9

Date Meet Event Result Place Rating Difficulty PR/SR Flags
2017-10-19 Shining Mountain Golf Course and Event Center 5000m 23:46.4 30th · 1st on team 113.4 +0.095
2017-10-06 Confluence Park 5000m 20:54.4 26th · 1st on team 117.7 -0.000 ★PR ★CR R SR CSR RSR
2017-09-23 Pagosa Springs High 5000m 24:35 5th · 1st on team 111.5 +0.117 ★CR CSR
2017-09-15 Fort Lewis College 5000m 21:45 33rd · 1st on team 115.5 +0.020 PR ★CR R SR CSR RSR
2017-09-09 Cattails Golf Course 5000m 21:50.4 47th · 1st on team 114.6 +0.012 PR ★CR R SR CSR RSR
2017-09-07 Shining Mountain Golf Course and Event Center 5000m 23:39 17th · 1st on team 114.0 +0.095 PR ★CR R SR CSR RSR

Track & Field

TF speed rating

2019 TF 113.4

Centauri (CO) · Grade 10

Date Meet Event Result Place Rating Difficulty PR/SR Flags
2019-04-15 Thunder-Storm Invitational 100m 14.92 29th · 1st on team -0.006 ★PR SR
2019-04-15 Thunder-Storm Invitational 800m 2:44.1 7th · 1st on team 115.4 -0.006 ★PR SR RSR
2019-04-09 Centauri Frosh/Soph Meet hj 4' 0" +0.006
2019-04-09 Centauri Frosh/Soph Meet 800m 2:53.23 3rd · 1st on team 111.3 +0.006 SR RSR
2019-03-30 Center Invitational 400m 1:12.19 10th · 1st on team +0.028 SR

2018 TF 113.2

Centauri (CO) · Grade 9

Date Meet Event Result Place Rating Difficulty PR/SR Flags
2018-04-28 High Altitude Challenge 400m 1:08.76 10th · 1st on team +0.020 ★PR SR
2018-04-23 Ray Headley Invitational 400m 1:09.87 15th · 1st on team -0.005 PR SR
2018-04-23 Ray Headley Invitational 800m 2:50.57 12th · 2nd on team 110.8 -0.005 PR SR
2018-04-21 Thunderbird Invitational 1600m 6:17.55 2nd · 1st on team 116.2 +0.025 RSR
2018-04-14 Pine River Invitational 1600m 6:22.7 4th · 1st on team 113.6 +0.019
2018-03-29 La Junta Open 1600m 6:11.57 3rd · 1st on team 114.7 -0.004 ★PR SR RSR
2018-03-16 Center Invitational 1600m 6:37.43 3rd · 1st on team 110.5 +0.028 PR SR RSR